Sinclair, Minnesota
Current Conditions -  °F | °C
As of 4:15 PM on Sunday 25 Jan 2015 (Local Time) from KFSE Reporting Station
Scattered Clouds Scattered Clouds  
Wind Chill: 13°   Ceiling: Unl
Heat Index: 23°   Visibility: 10mi
Dew Point: 18°   Wind: 9mph
Humidity: 80%   Direction: 200°SSW
Pressure: 29.95"   Gusts: NA
Location:  47.6306°N, 95.3701°W
Report Text: KFSE 252215Z AUTO 20008KT 10SM SCT050 M05/M08 A2995 RMK AO2
Loading
Personal Weather Stations






























Interactive Weather Map New forecast layout! Learn more

10-Day Weather Forecast

Advertisements
Track Severe Weather on mobile